sensor_id;sensor_type;location;lat;lon;timestamp;pressure;altitude;pressure_sealevel;temperature;humidity
68656;BME280;55638;51.122;13.606;2023-04-15T00:00:27;99005.59;;;6.33;66.63
68656;BME280;55638;51.122;13.606;2023-04-15T00:01:59;99003.66;;;6.35;66.44
68656;BME280;55638;51.122;13.606;2023-04-15T00:03:31;98995.72;;;6.33;66.41
68656;BME280;55638;51.122;13.606;2023-04-15T00:05:05;98994.88;;;6.33;66.62
68656;BME280;55638;51.122;13.606;2023-04-15T00:06:37;99003.75;;;6.33;66.61
68656;BME280;55638;51.122;13.606;2023-04-15T00:08:10;98992.22;;;6.33;66.35
68656;BME280;55638;51.122;13.606;2023-04-15T00:09:43;98996.84;;;6.31;66.58
68656;BME280;55638;51.122;13.606;2023-04-15T00:11:16;98991.47;;;6.31;66.49
68656;BME280;55638;51.122;13.606;2023-04-15T00:12:47;98991.47;;;6.31;66.49
68656;BME280;55638;51.122;13.606;2023-04-15T00:14:19;98990.53;;;6.32;66.50
68656;BME280;55638;51.122;13.606;2023-04-15T00:15:51;98987.13;;;6.30;66.44
68656;BME280;55638;51.122;13.606;2023-04-15T00:17:23;98990.63;;;6.30;66.53
68656;BME280;55638;51.122;13.606;2023-04-15T00:18:55;98992.47;;;6.30;66.67
68656;BME280;55638;51.122;13.606;2023-04-15T00:20:27;98987.25;;;6.28;66.73
68656;BME280;55638;51.122;13.606;2023-04-15T00:21:59;98992.63;;;6.28;66.51
68656;BME280;55638;51.122;13.606;2023-04-15T00:23:31;98986.38;;;6.28;66.73
68656;BME280;55638;51.122;13.606;2023-04-15T00:25:03;98982.75;;;6.29;66.58
68656;BME280;55638;51.122;13.606;2023-04-15T00:26:38;98978.38;;;6.28;66.53
68656;BME280;55638;51.122;13.606;2023-04-15T00:28:09;98976.56;;;6.28;66.53
68656;BME280;55638;51.122;13.606;2023-04-15T00:29:41;98984.59;;;6.28;66.63
68656;BME280;55638;51.122;13.606;2023-04-15T00:31:14;98988.09;;;6.29;66.73
68656;BME280;55638;51.122;13.606;2023-04-15T00:32:46;98984.69;;;6.27;66.77
68656;BME280;55638;51.122;13.606;2023-04-15T00:34:18;98990.06;;;6.27;66.72
68656;BME280;55638;51.122;13.606;2023-04-15T00:35:50;98995.28;;;6.28;66.76
68656;BME280;55638;51.122;13.606;2023-04-15T00:37:22;98990.78;;;6.29;66.50
68656;BME280;55638;51.122;13.606;2023-04-15T00:38:55;98988.09;;;6.29;66.81
68656;BME280;55638;51.122;13.606;2023-04-15T00:40:27;98985.53;;;6.27;66.84
68656;BME280;55638;51.122;13.606;2023-04-15T00:41:59;98981.03;;;6.28;66.73
68656;BME280;55638;51.122;13.606;2023-04-15T00:43:31;98982.03;;;6.27;66.74
68656;BME280;55638;51.122;13.606;2023-04-15T00:45:03;98980.19;;;6.27;66.72
68656;BME280;55638;51.122;13.606;2023-04-15T00:46:37;98982.88;;;6.27;66.97
68656;BME280;55638;51.122;13.606;2023-04-15T00:48:10;98975.69;;;6.28;66.83
68656;BME280;55638;51.122;13.606;2023-04-15T00:49:42;98976.66;;;6.27;66.92
68656;BME280;55638;51.122;13.606;2023-04-15T00:51:13;98972.16;;;6.27;66.79
68656;BME280;55638;51.122;13.606;2023-04-15T00:52:45;98976.56;;;6.28;66.96
68656;BME280;55638;51.122;13.606;2023-04-15T00:54:18;98974.72;;;6.29;66.95
68656;BME280;55638;51.122;13.606;2023-04-15T00:55:50;98975.56;;;6.29;66.79
68656;BME280;55638;51.122;13.606;2023-04-15T00:57:24;98973.88;;;6.28;66.79
68656;BME280;55638;51.122;13.606;2023-04-15T00:58:58;98973.88;;;6.28;66.73
68656;BME280;55638;51.122;13.606;2023-04-15T01:00:30;98969.38;;;6.29;66.81
68656;BME280;55638;51.122;13.606;2023-04-15T01:02:02;98965.72;;;6.30;66.93
68656;BME280;55638;51.122;13.606;2023-04-15T01:03:34;98976.56;;;6.28;66.83
68656;BME280;55638;51.122;13.606;2023-04-15T01:05:07;98974.72;;;6.29;66.89
68656;BME280;55638;51.122;13.606;2023-04-15T01:06:39;98968.53;;;6.28;66.84
68656;BME280;55638;51.122;13.606;2023-04-15T01:08:11;98975.56;;;6.29;66.93
68656;BME280;55638;51.122;13.606;2023-04-15T01:09:43;98974.72;;;6.29;66.91
68656;BME280;55638;51.122;13.606;2023-04-15T01:11:16;98971.06;;;6.30;66.79
68656;BME280;55638;51.122;13.606;2023-04-15T01:12:49;98973.75;;;6.30;66.80
68656;BME280;55638;51.122;13.606;2023-04-15T01:14:21;98967.53;;;6.29;66.73
68656;BME280;55638;51.122;13.606;2023-04-15T01:15:52;98964.88;;;6.29;66.84
68656;BME280;55638;51.122;13.606;2023-04-15T01:17:24;98967.53;;;6.29;66.93
68656;BME280;55638;51.122;13.606;2023-04-15T01:18:56;98969.13;;;6.32;66.85
68656;BME280;55638;51.122;13.606;2023-04-15T01:20:29;98964.72;;;6.31;66.95
68656;BME280;55638;51.122;13.606;2023-04-15T01:22:03;98955.00;;;6.30;66.98
68656;BME280;55638;51.122;13.606;2023-04-15T01:23:36;98953.16;;;6.30;67.06
68656;BME280;55638;51.122;13.606;2023-04-15T01:25:16;98951.34;;;6.31;67.09
68656;BME280;55638;51.122;13.606;2023-04-15T01:26:48;98941.50;;;6.31;66.90
68656;BME280;55638;51.122;13.606;2023-04-15T01:28:21;98949.53;;;6.31;67.14
68656;BME280;55638;51.122;13.606;2023-04-15T01:29:53;98940.63;;;6.31;67.05
68656;BME280;55638;51.122;13.606;2023-04-15T01:31:25;98950.38;;;6.32;66.86
68656;BME280;55638;51.122;13.606;2023-04-15T01:32:58;98950.38;;;6.32;67.01
68656;BME280;55638;51.122;13.606;2023-04-15T01:34:48;98950.38;;;6.32;66.91
68656;BME280;55638;51.122;13.606;2023-04-15T01:36:38;98951.34;;;6.31;66.84
68656;BME280;55638;51.122;13.606;2023-04-15T01:38:10;98954.00;;;6.31;67.08
68656;BME280;55638;51.122;13.606;2023-04-15T01:39:42;98957.56;;;6.31;67.08
68656;BME280;55638;51.122;13.606;2023-04-15T01:41:15;98948.66;;;6.31;67.04
68656;BME280;55638;51.122;13.606;2023-04-15T01:42:49;98943.19;;;6.32;67.21
68656;BME280;55638;51.122;13.606;2023-04-15T01:44:22;98949.41;;;6.33;67.01
68656;BME280;55638;51.122;13.606;2023-04-15T01:45:55;98944.03;;;6.33;67.01
68656;BME280;55638;51.122;13.606;2023-04-15T01:47:29;98944.88;;;6.33;67.12
68656;BME280;55638;51.122;13.606;2023-04-15T01:49:03;98945.88;;;6.32;67.19
68656;BME280;55638;51.122;13.606;2023-04-15T01:50:37;98948.41;;;6.34;67.01
68656;BME280;55638;51.122;13.606;2023-04-15T01:52:10;98944.88;;;6.33;67.14
68656;BME280;55638;51.122;13.606;2023-04-15T01:53:45;98947.56;;;6.33;67.01
68656;BME280;55638;51.122;13.606;2023-04-15T01:55:18;98943.06;;;6.34;67.00
68656;BME280;55638;51.122;13.606;2023-04-15T01:56:51;98944.78;;;6.35;66.94
68656;BME280;55638;51.122;13.606;2023-04-15T01:58:25;98940.38;;;6.34;67.06
68656;BME280;55638;51.122;13.606;2023-04-15T01:59:59;98936.75;;;6.35;66.86
68656;BME280;55638;51.122;13.606;2023-04-15T02:01:32;98936.75;;;6.35;66.90
68656;BME280;55638;51.122;13.606;2023-04-15T02:03:06;98943.78;;;6.36;66.89
68656;BME280;55638;51.122;13.606;2023-04-15T02:04:39;98929.66;;;6.34;67.08
68656;BME280;55638;51.122;13.606;2023-04-15T02:06:12;98934.06;;;6.35;66.93
68656;BME280;55638;51.122;13.606;2023-04-15T02:07:45;98931.38;;;6.35;66.97
68656;BME280;55638;51.122;13.606;2023-04-15T02:09:18;98932.34;;;6.34;66.97
68656;BME280;55638;51.122;13.606;2023-04-15T02:10:51;98930.53;;;6.34;67.17
68656;BME280;55638;51.122;13.606;2023-04-15T02:12:24;98927.88;;;6.34;67.07
68656;BME280;55638;51.122;13.606;2023-04-15T02:13:57;98918.97;;;6.34;66.87
68656;BME280;55638;51.122;13.606;2023-04-15T02:15:31;98919.94;;;6.33;67.00
68656;BME280;55638;51.122;13.606;2023-04-15T02:17:05;98924.31;;;6.34;66.92
68656;BME280;55638;51.122;13.606;2023-04-15T02:18:41;98913.63;;;6.34;67.12
68656;BME280;55638;51.122;13.606;2023-04-15T02:20:15;98913.63;;;6.34;66.98
68656;BME280;55638;51.122;13.606;2023-04-15T02:21:48;98919.94;;;6.33;67.19
68656;BME280;55638;51.122;13.606;2023-04-15T02:23:23;98917.28;;;6.33;67.08
68656;BME280;55638;51.122;13.606;2023-04-15T02:24:56;98920.94;;;6.32;67.02
68656;BME280;55638;51.122;13.606;2023-04-15T02:26:30;98922.63;;;6.33;67.21
68656;BME280;55638;51.122;13.606;2023-04-15T02:28:05;98919.13;;;6.32;67.05
68656;BME280;55638;51.122;13.606;2023-04-15T02:29:38;98921.66;;;6.34;67.07
68656;BME280;55638;51.122;13.606;2023-04-15T02:31:12;98924.31;;;6.34;67.18
68656;BME280;55638;51.122;13.606;2023-04-15T02:32:45;98920.69;;;6.35;67.04
68656;BME280;55638;51.122;13.606;2023-04-15T02:34:18;98917.28;;;6.33;67.00
68656;BME280;55638;51.122;13.606;2023-04-15T02:35:52;98916.28;;;6.34;67.14
68656;BME280;55638;51.122;13.606;2023-04-15T02:37:25;98917.00;;;6.36;67.14
68656;BME280;55638;51.122;13.606;2023-04-15T02:39:00;98912.66;;;6.35;67.06
68656;BME280;55638;51.122;13.606;2023-04-15T02:40:34;98913.63;;;6.34;67.07
68656;BME280;55638;51.122;13.606;2023-04-15T02:42:07;98919.84;;;6.34;67.11
68656;BME280;55638;51.122;13.606;2023-04-15T02:43:41;98911.81;;;6.34;67.00
68656;BME280;55638;51.122;13.606;2023-04-15T02:45:14;98919.84;;;6.34;67.20
68656;BME280;55638;51.122;13.606;2023-04-15T02:46:49;98925.19;;;6.34;67.18
68656;BME280;55638;51.122;13.606;2023-04-15T02:48:26;98919.84;;;6.34;67.31
68656;BME280;55638;51.122;13.606;2023-04-15T02:49:59;98920.69;;;6.35;67.51
68656;BME280;55638;51.122;13.606;2023-04-15T02:51:34;98911.81;;;6.34;67.26
68656;BME280;55638;51.122;13.606;2023-04-15T02:53:07;98913.63;;;6.34;67.18
68656;BME280;55638;51.122;13.606;2023-04-15T02:54:40;98912.50;;;6.36;67.16
68656;BME280;55638;51.122;13.606;2023-04-15T02:56:14;98921.53;;;6.35;67.25
68656;BME280;55638;51.122;13.606;2023-04-15T02:57:47;98914.34;;;6.36;67.29
68656;BME280;55638;51.122;13.606;2023-04-15T02:59:21;98919.53;;;6.37;67.06
68656;BME280;55638;51.122;13.606;2023-04-15T03:00:54;98916.03;;;6.37;67.19
68656;BME280;55638;51.122;13.606;2023-04-15T03:02:32;98922.38;;;6.36;67.21
68656;BME280;55638;51.122;13.606;2023-04-15T03:04:06;98917.88;;;6.36;67.15
68656;BME280;55638;51.122;13.606;2023-04-15T03:05:41;98918.69;;;6.37;67.16
68656;BME280;55638;51.122;13.606;2023-04-15T03:07:14;98914.34;;;6.36;67.15
68656;BME280;55638;51.122;13.606;2023-04-15T03:08:47;98913.50;;;6.35;66.99
68656;BME280;55638;51.122;13.606;2023-04-15T03:10:20;98909.00;;;6.36;67.18
68656;BME280;55638;51.122;13.606;2023-04-15T03:11:53;98908.25;;;6.34;67.23
68656;BME280;55638;51.122;13.606;2023-04-15T03:13:27;98906.47;;;6.34;67.36
68656;BME280;55638;51.122;13.606;2023-04-15T03:15:02;98908.25;;;6.34;67.16
68656;BME280;55638;51.122;13.606;2023-04-15T03:16:43;98903.78;;;6.34;67.23
68656;BME280;55638;51.122;13.606;2023-04-15T03:18:18;98907.41;;;6.33;67.20
68656;BME280;55638;51.122;13.606;2023-04-15T03:19:51;98902.91;;;6.34;67.40
68656;BME280;55638;51.122;13.606;2023-04-15T03:21:24;98903.78;;;6.34;67.32
68656;BME280;55638;51.122;13.606;2023-04-15T03:22:58;98899.28;;;6.35;67.57
68656;BME280;55638;51.122;13.606;2023-04-15T03:24:31;98906.31;;;6.36;67.45
68656;BME280;55638;51.122;13.606;2023-04-15T03:26:04;98909.84;;;6.36;67.37
68656;BME280;55638;51.122;13.606;2023-04-15T03:27:38;98901.81;;;6.36;67.56
68656;BME280;55638;51.122;13.606;2023-04-15T03:29:11;98906.16;;;6.37;67.59
68656;BME280;55638;51.122;13.606;2023-04-15T03:30:45;98897.19;;;6.38;67.47
68656;BME280;55638;51.122;13.606;2023-04-15T03:32:18;98905.91;;;6.40;67.40
68656;BME280;55638;51.122;13.606;2023-04-15T03:33:51;98906.88;;;6.39;67.32
68656;BME280;55638;51.122;13.606;2023-04-15T03:35:24;98906.88;;;6.39;67.46
68656;BME280;55638;51.122;13.606;2023-04-15T03:36:57;98903.38;;;6.39;67.48
68656;BME280;55638;51.122;13.606;2023-04-15T03:38:30;98903.22;;;6.40;67.49
68656;BME280;55638;51.122;13.606;2023-04-15T03:40:04;98907.72;;;6.40;67.41
68656;BME280;55638;51.122;13.606;2023-04-15T03:41:37;98908.56;;;6.40;67.38
68656;BME280;55638;51.122;13.606;2023-04-15T03:43:10;98897.75;;;6.42;67.55
68656;BME280;55638;51.122;13.606;2023-04-15T03:44:44;98897.75;;;6.42;67.38
68656;BME280;55638;51.122;13.606;2023-04-15T03:46:17;98901.28;;;6.42;67.41
68656;BME280;55638;51.122;13.606;2023-04-15T03:47:50;98901.16;;;6.44;67.54
68656;BME280;55638;51.122;13.606;2023-04-15T03:49:23;98907.47;;;6.43;67.49
68656;BME280;55638;51.122;13.606;2023-04-15T03:50:57;98894.09;;;6.43;67.28
68656;BME280;55638;51.122;13.606;2023-04-15T03:52:30;98899.44;;;6.43;67.42
68656;BME280;55638;51.122;13.606;2023-04-15T03:54:03;98893.97;;;6.44;67.33
68656;BME280;55638;51.122;13.606;2023-04-15T03:55:36;98899.31;;;6.44;67.39
68656;BME280;55638;51.122;13.606;2023-04-15T03:57:09;98896.66;;;6.44;67.27
68656;BME280;55638;51.122;13.606;2023-04-15T03:58:42;98900.16;;;6.45;67.39
68656;BME280;55638;51.122;13.606;2023-04-15T04:00:16;98888.47;;;6.46;67.39
68656;BME280;55638;51.122;13.606;2023-04-15T04:01:49;98886.78;;;6.45;67.24
68656;BME280;55638;51.122;13.606;2023-04-15T04:03:22;98889.47;;;6.45;67.20
68656;BME280;55638;51.122;13.606;2023-04-15T04:04:56;98884.94;;;6.45;67.20
68656;BME280;55638;51.122;13.606;2023-04-15T04:06:29;98879.75;;;6.44;67.14
68656;BME280;55638;51.122;13.606;2023-04-15T04:08:03;98877.06;;;6.44;67.22
68656;BME280;55638;51.122;13.606;2023-04-15T04:09:36;98878.88;;;6.43;67.29
68656;BME280;55638;51.122;13.606;2023-04-15T04:11:10;98882.41;;;6.44;67.53
68656;BME280;55638;51.122;13.606;2023-04-15T04:12:44;98881.44;;;6.45;67.43
68656;BME280;55638;51.122;13.606;2023-04-15T04:14:17;98883.25;;;6.44;67.33
68656;BME280;55638;51.122;13.606;2023-04-15T04:15:50;98877.75;;;6.46;67.42
68656;BME280;55638;51.122;13.606;2023-04-15T04:17:23;98878.75;;;6.45;67.42
68656;BME280;55638;51.122;13.606;2023-04-15T04:18:56;98884.94;;;6.45;67.42
68656;BME280;55638;51.122;13.606;2023-04-15T04:20:29;98888.47;;;6.46;67.40
68656;BME280;55638;51.122;13.606;2023-04-15T04:22:03;98884.09;;;6.45;67.37
68656;BME280;55638;51.122;13.606;2023-04-15T04:23:37;98887.63;;;6.45;67.34
68656;BME280;55638;51.122;13.606;2023-04-15T04:25:10;98892.84;;;6.47;67.30
68656;BME280;55638;51.122;13.606;2023-04-15T04:26:43;98895.66;;;6.45;67.35
68656;BME280;55638;51.122;13.606;2023-04-15T04:28:16;98895.66;;;6.45;67.42
68656;BME280;55638;51.122;13.606;2023-04-15T04:29:49;98895.66;;;6.45;67.34
68656;BME280;55638;51.122;13.606;2023-04-15T04:31:22;98893.97;;;6.44;67.49
68656;BME280;55638;51.122;13.606;2023-04-15T04:32:55;98892.97;;;6.45;67.51
68656;BME280;55638;51.122;13.606;2023-04-15T04:34:28;98900.16;;;6.45;67.65
68656;BME280;55638;51.122;13.606;2023-04-15T04:36:01;98901.84;;;6.46;67.49
68656;BME280;55638;51.122;13.606;2023-04-15T04:37:34;98895.66;;;6.45;67.51
68656;BME280;55638;51.122;13.606;2023-04-15T04:39:08;98900.84;;;6.47;67.38
68656;BME280;55638;51.122;13.606;2023-04-15T04:40:41;98892.00;;;6.46;67.56
68656;BME280;55638;51.122;13.606;2023-04-15T04:42:14;98887.47;;;6.47;67.62
68656;BME280;55638;51.122;13.606;2023-04-15T04:43:47;98895.50;;;6.47;67.48
68656;BME280;55638;51.122;13.606;2023-04-15T04:45:20;98897.22;;;6.48;67.56
68656;BME280;55638;51.122;13.606;2023-04-15T04:46:54;98897.06;;;6.50;67.53
68656;BME280;55638;51.122;13.606;2023-04-15T04:48:27;98899.06;;;6.48;67.68
68656;BME280;55638;51.122;13.606;2023-04-15T04:50:00;98893.72;;;6.48;67.51
68656;BME280;55638;51.122;13.606;2023-04-15T04:51:34;98893.44;;;6.51;67.61
68656;BME280;55638;51.122;13.606;2023-04-15T04:53:07;98891.72;;;6.50;67.45
68656;BME280;55638;51.122;13.606;2023-04-15T04:54:40;98896.22;;;6.49;67.54
68656;BME280;55638;51.122;13.606;2023-04-15T04:56:13;98892.56;;;6.50;67.52
68656;BME280;55638;51.122;13.606;2023-04-15T04:57:46;98889.88;;;6.50;67.75
68656;BME280;55638;51.122;13.606;2023-04-15T04:59:19;98893.44;;;6.51;67.57
68656;BME280;55638;51.122;13.606;2023-04-15T05:00:52;98894.28;;;6.51;67.79
68656;BME280;55638;51.122;13.606;2023-04-15T05:02:25;98891.59;;;6.51;67.56
68656;BME280;55638;51.122;13.606;2023-04-15T05:03:59;98900.31;;;6.53;67.76
68656;BME280;55638;51.122;13.606;2023-04-15T05:05:33;98893.28;;;6.52;67.78
68656;BME280;55638;51.122;13.606;2023-04-15T05:07:07;98889.63;;;6.53;67.75
68656;BME280;55638;51.122;13.606;2023-04-15T05:08:40;98892.28;;;6.53;67.78
68656;BME280;55638;51.122;13.606;2023-04-15T05:10:13;98888.66;;;6.54;67.85
68656;BME280;55638;51.122;13.606;2023-04-15T05:11:49;98893.88;;;6.56;67.81
68656;BME280;55638;51.122;13.606;2023-04-15T05:13:22;98895.69;;;6.55;67.75
68656;BME280;55638;51.122;13.606;2023-04-15T05:14:55;98892.03;;;6.56;67.68
68656;BME280;55638;51.122;13.606;2023-04-15T05:16:28;98893.75;;;6.57;67.89
68656;BME280;55638;51.122;13.606;2023-04-15T05:18:01;98901.63;;;6.59;67.77
68656;BME280;55638;51.122;13.606;2023-04-15T05:19:34;98901.63;;;6.59;67.86
68656;BME280;55638;51.122;13.606;2023-04-15T05:21:08;98902.47;;;6.59;67.74
68656;BME280;55638;51.122;13.606;2023-04-15T05:22:41;98903.31;;;6.60;67.89
68656;BME280;55638;51.122;13.606;2023-04-15T05:24:14;98901.50;;;6.60;67.98
68656;BME280;55638;51.122;13.606;2023-04-15T05:25:47;98890.66;;;6.62;67.98
68656;BME280;55638;51.122;13.606;2023-04-15T05:27:20;98889.66;;;6.63;67.92
68656;BME280;55638;51.122;13.606;2023-04-15T05:28:54;98894.91;;;6.64;67.82
68656;BME280;55638;51.122;13.606;2023-04-15T05:30:27;98901.09;;;6.65;67.99
68656;BME280;55638;51.122;13.606;2023-04-15T05:32:00;98901.94;;;6.65;68.00
68656;BME280;55638;51.122;13.606;2023-04-15T05:33:33;98897.31;;;6.67;67.87
68656;BME280;55638;51.122;13.606;2023-04-15T05:35:06;98908.03;;;6.67;67.79
68656;BME280;55638;51.122;13.606;2023-04-15T05:36:40;98894.63;;;6.67;67.97
68656;BME280;55638;51.122;13.606;2023-04-15T05:38:13;98898.00;;;6.69;67.94
68656;BME280;55638;51.122;13.606;2023-04-15T05:39:46;98900.69;;;6.69;67.92
68656;BME280;55638;51.122;13.606;2023-04-15T05:41:20;98904.09;;;6.72;68.07
68656;BME280;55638;51.122;13.606;2023-04-15T05:42:53;98902.25;;;6.72;68.17
68656;BME280;55638;51.122;13.606;2023-04-15T05:44:26;98910.16;;;6.74;68.06
68656;BME280;55638;51.122;13.606;2023-04-15T05:45:59;98903.81;;;6.75;67.94
68656;BME280;55638;51.122;13.606;2023-04-15T05:47:33;98909.91;;;6.77;68.00
68656;BME280;55638;51.122;13.606;2023-04-15T05:49:06;98906.22;;;6.78;68.11
68656;BME280;55638;51.122;13.606;2023-04-15T05:50:42;98907.91;;;6.79;68.01
68656;BME280;55638;51.122;13.606;2023-04-15T05:52:16;98905.97;;;6.81;68.15
68656;BME280;55638;51.122;13.606;2023-04-15T05:53:49;98904.97;;;6.82;68.22
68656;BME280;55638;51.122;13.606;2023-04-15T05:55:22;98917.34;;;6.83;68.11
68656;BME280;55638;51.122;13.606;2023-04-15T05:56:55;98918.97;;;6.85;68.26
68656;BME280;55638;51.122;13.606;2023-04-15T05:58:29;98916.16;;;6.87;68.10
68656;BME280;55638;51.122;13.606;2023-04-15T06:00:03;98917.72;;;6.89;68.18
68656;BME280;55638;51.122;13.606;2023-04-15T06:01:41;98927.44;;;6.90;68.08
68656;BME280;55638;51.122;13.606;2023-04-15T06:03:15;98929.00;;;6.93;68.09
68656;BME280;55638;51.122;13.606;2023-04-15T06:04:48;98932.53;;;6.93;68.23
68656;BME280;55638;51.122;13.606;2023-04-15T06:06:21;98930.56;;;6.96;68.12
68656;BME280;55638;51.122;13.606;2023-04-15T06:07:54;98933.09;;;6.97;68.18
68656;BME280;55638;51.122;13.606;2023-04-15T06:09:27;98938.31;;;6.99;67.86
68656;BME280;55638;51.122;13.606;2023-04-15T06:11:00;98931.16;;;6.99;68.18
68656;BME280;55638;51.122;13.606;2023-04-15T06:12:34;98932.69;;;7.02;68.26
68656;BME280;55638;51.122;13.606;2023-04-15T06:14:07;98933.53;;;7.02;68.18
68656;BME280;55638;51.122;13.606;2023-04-15T06:15:40;98922.69;;;7.04;68.23
68656;BME280;55638;51.122;13.606;2023-04-15T06:17:13;98935.09;;;7.05;68.33
68656;BME280;55638;51.122;13.606;2023-04-15T06:18:46;98927.78;;;7.07;68.45
68656;BME280;55638;51.122;13.606;2023-04-15T06:20:20;98934.72;;;7.09;68.30
68656;BME280;55638;51.122;13.606;2023-04-15T06:21:53;98934.56;;;7.11;68.29
68656;BME280;55638;51.122;13.606;2023-04-15T06:23:26;98927.25;;;7.13;68.44
68656;BME280;55638;51.122;13.606;2023-04-15T06:24:59;98932.31;;;7.16;68.36
68656;BME280;55638;51.122;13.606;2023-04-15T06:26:32;98933.00;;;7.18;68.22
68656;BME280;55638;51.122;13.606;2023-04-15T06:28:06;98937.41;;;7.19;68.20
68656;BME280;55638;51.122;13.606;2023-04-15T06:29:39;98942.63;;;7.21;68.13
68656;BME280;55638;51.122;13.606;2023-04-15T06:31:12;98943.47;;;7.21;67.98
68656;BME280;55638;51.122;13.606;2023-04-15T06:32:45;98939.94;;;7.21;68.17
68656;BME280;55638;51.122;13.606;2023-04-15T06:34:18;98949.53;;;7.23;68.01
68656;BME280;55638;51.122;13.606;2023-04-15T06:35:51;98949.41;;;7.25;67.88
68656;BME280;55638;51.122;13.606;2023-04-15T06:37:24;98948.44;;;7.26;67.95
68656;BME280;55638;51.122;13.606;2023-04-15T06:38:57;98953.78;;;7.26;67.78
68656;BME280;55638;51.122;13.606;2023-04-15T06:40:31;98959.84;;;7.28;67.91
68656;BME280;55638;51.122;13.606;2023-04-15T06:42:04;98951.81;;;7.28;67.77
68656;BME280;55638;51.122;13.606;2023-04-15T06:43:38;98951.81;;;7.28;67.85
68656;BME280;55638;51.122;13.606;2023-04-15T06:45:11;98958.00;;;7.28;67.68
68656;BME280;55638;51.122;13.606;2023-04-15T06:46:44;98958.88;;;7.29;67.64
68656;BME280;55638;51.122;13.606;2023-04-15T06:48:17;98964.25;;;7.29;67.67
68656;BME280;55638;51.122;13.606;2023-04-15T06:49:50;98953.53;;;7.29;67.83
68656;BME280;55638;51.122;13.606;2023-04-15T06:51:23;98958.88;;;7.29;67.69
68656;BME280;55638;51.122;13.606;2023-04-15T06:52:58;98962.41;;;7.29;67.70
68656;BME280;55638;51.122;13.606;2023-04-15T06:54:31;98960.56;;;7.30;67.69
68656;BME280;55638;51.122;13.606;2023-04-15T06:56:04;98960.56;;;7.30;67.64
68656;BME280;55638;51.122;13.606;2023-04-15T06:57:38;98956.88;;;7.31;67.90
68656;BME280;55638;51.122;13.606;2023-04-15T06:59:11;98953.25;;;7.32;67.93
68656;BME280;55638;51.122;13.606;2023-04-15T07:00:44;98958.59;;;7.32;67.82
68656;BME280;55638;51.122;13.606;2023-04-15T07:02:17;98963.97;;;7.32;68.13
68656;BME280;55638;51.122;13.606;2023-04-15T07:03:51;98961.97;;;7.34;68.05
68656;BME280;55638;51.122;13.606;2023-04-15T07:05:24;98967.34;;;7.34;68.11
68656;BME280;55638;51.122;13.606;2023-04-15T07:06:57;98976.09;;;7.36;68.08
68656;BME280;55638;51.122;13.606;2023-04-15T07:08:30;98987.53;;;7.38;68.20
68656;BME280;55638;51.122;13.606;2023-04-15T07:10:03;98984.84;;;7.38;68.13
68656;BME280;55638;51.122;13.606;2023-04-15T07:11:37;98992.59;;;7.41;67.96
68656;BME280;55638;51.122;13.606;2023-04-15T07:13:10;98978.25;;;7.42;68.14
68656;BME280;55638;51.122;13.606;2023-04-15T07:14:43;98974.56;;;7.43;67.87
68656;BME280;55638;51.122;13.606;2023-04-15T07:16:17;98981.50;;;7.46;68.06
68656;BME280;55638;51.122;13.606;2023-04-15T07:17:50;98985.84;;;7.47;68.08
68656;BME280;55638;51.122;13.606;2023-04-15T07:19:23;98985.72;;;7.48;68.12
68656;BME280;55638;51.122;13.606;2023-04-15T07:20:56;98986.44;;;7.50;68.14
68656;BME280;55638;51.122;13.606;2023-04-15T07:22:29;98986.03;;;7.55;68.28
68656;BME280;55638;51.122;13.606;2023-04-15T07:24:03;98984.03;;;7.57;68.15
68656;BME280;55638;51.122;13.606;2023-04-15T07:25:36;98991.13;;;7.58;68.09
68656;BME280;55638;51.122;13.606;2023-04-15T07:27:09;98990.84;;;7.61;68.26
68656;BME280;55638;51.122;13.606;2023-04-15T07:28:42;98997.75;;;7.63;68.40
68656;BME280;55638;51.122;13.606;2023-04-15T07:30:15;98996.63;;;7.66;68.59
68656;BME280;55638;51.122;13.606;2023-04-15T07:31:48;98998.03;;;7.70;68.46
68656;BME280;55638;51.122;13.606;2023-04-15T07:33:22;98992.38;;;7.73;68.64
68656;BME280;55638;51.122;13.606;2023-04-15T07:34:55;99001.00;;;7.77;68.49
68656;BME280;55638;51.122;13.606;2023-04-15T07:36:28;99000.72;;;7.80;68.33
68656;BME280;55638;51.122;13.606;2023-04-15T07:38:02;99000.44;;;7.83;68.41
68656;BME280;55638;51.122;13.606;2023-04-15T07:39:35;98992.13;;;7.86;68.59
68656;BME280;55638;51.122;13.606;2023-04-15T07:41:08;98989.16;;;7.89;68.41
68656;BME280;55638;51.122;13.606;2023-04-15T07:42:42;98997.66;;;7.94;68.66
68656;BME280;55638;51.122;13.606;2023-04-15T07:44:15;98997.38;;;7.97;68.71
68656;BME280;55638;51.122;13.606;2023-04-15T07:45:49;98998.78;;;8.01;68.56
68656;BME280;55638;51.122;13.606;2023-04-15T07:47:22;99001.91;;;8.06;68.46
68656;BME280;55638;51.122;13.606;2023-04-15T07:48:55;99000.75;;;8.09;68.24
68656;BME280;55638;51.122;13.606;2023-04-15T07:50:28;99004.00;;;8.13;67.80
68656;BME280;55638;51.122;13.606;2023-04-15T07:52:01;98998.50;;;8.14;67.88
68656;BME280;55638;51.122;13.606;2023-04-15T07:53:34;99002.44;;;8.20;67.92
68656;BME280;55638;51.122;13.606;2023-04-15T07:55:08;99002.44;;;8.20;67.64
68656;BME280;55638;51.122;13.606;2023-04-15T07:56:41;99002.28;;;8.21;67.81
68656;BME280;55638;51.122;13.606;2023-04-15T07:58:14;99005.69;;;8.23;67.72
68656;BME280;55638;51.122;13.606;2023-04-15T07:59:48;99003.72;;;8.25;67.59
68656;BME280;55638;51.122;13.606;2023-04-15T08:01:21;99016.19;;;8.26;67.78
68656;BME280;55638;51.122;13.606;2023-04-15T08:02:55;99013.34;;;8.28;67.58
68656;BME280;55638;51.122;13.606;2023-04-15T08:04:29;99015.03;;;8.29;67.67
68656;BME280;55638;51.122;13.606;2023-04-15T08:06:03;99020.28;;;8.30;67.58
68656;BME280;55638;51.122;13.606;2023-04-15T08:07:36;99020.13;;;8.32;67.66
68656;BME280;55638;51.122;13.606;2023-04-15T08:09:10;99021.84;;;8.33;67.76
68656;BME280;55638;51.122;13.606;2023-04-15T08:10:43;99023.53;;;8.34;67.94
68656;BME280;55638;51.122;13.606;2023-04-15T08:12:16;99020.56;;;8.37;67.82
68656;BME280;55638;51.122;13.606;2023-04-15T08:13:49;99029.31;;;8.39;67.90